sensor_id;sensor_type;location;lat;lon;timestamp;P1;durP1;ratioP1;P2;durP2;ratioP2
59974;SDS011;62136;-35.664;-63.766;2024-03-02T00:01:55;1.80;;;1.70;;
59974;SDS011;62136;-35.664;-63.766;2024-03-02T00:04:22;1.50;;;1.40;;
59974;SDS011;62136;-35.664;-63.766;2024-03-02T00:06:51;1.70;;;1.52;;
59974;SDS011;62136;-35.664;-63.766;2024-03-02T00:09:20;1.60;;;1.50;;
59974;SDS011;62136;-35.664;-63.766;2024-03-02T00:11:47;2.35;;;1.70;;
59974;SDS011;62136;-35.664;-63.766;2024-03-02T00:14:14;1.90;;;1.63;;
59974;SDS011;62136;-35.664;-63.766;2024-03-02T00:16:42;1.88;;;1.63;;
59974;SDS011;62136;-35.664;-63.766;2024-03-02T00:19:09;3.33;;;1.85;;
59974;SDS011;62136;-35.664;-63.766;2024-03-02T00:21:36;1.60;;;1.50;;
59974;SDS011;62136;-35.664;-63.766;2024-03-02T00:24:21;1.60;;;1.50;;
59974;SDS011;62136;-35.664;-63.766;2024-03-02T00:27:01;1.98;;;1.70;;
59974;SDS011;62136;-35.664;-63.766;2024-03-02T00:29:30;1.35;;;1.25;;
59974;SDS011;62136;-35.664;-63.766;2024-03-02T00:31:57;1.88;;;1.77;;
59974;SDS011;62136;-35.664;-63.766;2024-03-02T00:34:26;2.10;;;1.80;;
59974;SDS011;62136;-35.664;-63.766;2024-03-02T00:36:53;1.92;;;1.83;;
59974;SDS011;62136;-35.664;-63.766;2024-03-02T00:39:23;2.10;;;1.90;;
59974;SDS011;62136;-35.664;-63.766;2024-03-02T00:41:50;1.85;;;1.75;;
59974;SDS011;62136;-35.664;-63.766;2024-03-02T00:44:17;2.03;;;1.45;;
59974;SDS011;62136;-35.664;-63.766;2024-03-02T00:46:50;2.00;;;1.90;;
59974;SDS011;62136;-35.664;-63.766;2024-03-02T00:51:52;1.58;;;1.48;;
59974;SDS011;62136;-35.664;-63.766;2024-03-02T00:54:25;2.10;;;1.90;;
59974;SDS011;62136;-35.664;-63.766;2024-03-02T00:56:54;3.17;;;1.80;;
59974;SDS011;62136;-35.664;-63.766;2024-03-02T00:59:22;2.70;;;2.03;;
59974;SDS011;62136;-35.664;-63.766;2024-03-02T01:01:49;1.63;;;1.52;;
59974;SDS011;62136;-35.664;-63.766;2024-03-02T01:04:16;1.95;;;1.80;;
59974;SDS011;62136;-35.664;-63.766;2024-03-02T01:06:43;1.85;;;1.75;;
59974;SDS011;62136;-35.664;-63.766;2024-03-02T01:09:11;2.53;;;2.15;;
59974;SDS011;62136;-35.664;-63.766;2024-03-02T01:11:42;2.47;;;2.08;;
59974;SDS011;62136;-35.664;-63.766;2024-03-02T01:14:09;2.53;;;2.10;;
59974;SDS011;62136;-35.664;-63.766;2024-03-02T01:16:36;1.77;;;1.67;;
59974;SDS011;62136;-35.664;-63.766;2024-03-02T01:19:02;2.35;;;1.80;;
59974;SDS011;62136;-35.664;-63.766;2024-03-02T01:21:30;2.70;;;2.50;;
59974;SDS011;62136;-35.664;-63.766;2024-03-02T01:23:57;2.95;;;2.00;;
59974;SDS011;62136;-35.664;-63.766;2024-03-02T01:26:24;2.17;;;2.03;;
59974;SDS011;62136;-35.664;-63.766;2024-03-02T01:28:51;2.72;;;2.15;;
59974;SDS011;62136;-35.664;-63.766;2024-03-02T01:31:18;2.30;;;2.05;;
59974;SDS011;62136;-35.664;-63.766;2024-03-02T01:33:45;2.45;;;2.22;;
59974;SDS011;62136;-35.664;-63.766;2024-03-02T01:36:12;2.45;;;2.25;;
59974;SDS011;62136;-35.664;-63.766;2024-03-02T01:38:39;2.47;;;2.22;;
59974;SDS011;62136;-35.664;-63.766;2024-03-02T01:41:06;2.53;;;2.33;;
59974;SDS011;62136;-35.664;-63.766;2024-03-02T01:43:33;2.67;;;2.20;;
59974;SDS011;62136;-35.664;-63.766;2024-03-02T01:46:00;2.42;;;2.22;;
59974;SDS011;62136;-35.664;-63.766;2024-03-02T01:48:28;2.60;;;2.40;;
59974;SDS011;62136;-35.664;-63.766;2024-03-02T01:50:54;2.42;;;2.22;;
59974;SDS011;62136;-35.664;-63.766;2024-03-02T01:53:21;2.38;;;1.95;;
59974;SDS011;62136;-35.664;-63.766;2024-03-02T01:55:49;2.55;;;2.35;;
59974;SDS011;62136;-35.664;-63.766;2024-03-02T01:58:16;2.95;;;2.55;;
59974;SDS011;62136;-35.664;-63.766;2024-03-02T02:00:43;2.70;;;2.30;;
59974;SDS011;62136;-35.664;-63.766;2024-03-02T02:03:10;3.03;;;2.40;;
59974;SDS011;62136;-35.664;-63.766;2024-03-02T02:05:37;2.88;;;2.33;;
59974;SDS011;62136;-35.664;-63.766;2024-03-02T02:08:04;3.03;;;2.70;;
59974;SDS011;62136;-35.664;-63.766;2024-03-02T02:10:31;3.80;;;2.55;;
59974;SDS011;62136;-35.664;-63.766;2024-03-02T02:13:01;3.40;;;2.38;;
59974;SDS011;62136;-35.664;-63.766;2024-03-02T02:16:19;3.67;;;2.65;;
59974;SDS011;62136;-35.664;-63.766;2024-03-02T02:18:39;2.92;;;2.50;;
59974;SDS011;62136;-35.664;-63.766;2024-03-02T02:21:06;2.85;;;2.65;;
59974;SDS011;62136;-35.664;-63.766;2024-03-02T02:23:33;2.60;;;2.20;;
59974;SDS011;62136;-35.664;-63.766;2024-03-02T02:26:00;2.40;;;2.20;;
59974;SDS011;62136;-35.664;-63.766;2024-03-02T02:28:28;2.97;;;2.42;;
59974;SDS011;62136;-35.664;-63.766;2024-03-02T02:30:55;3.67;;;2.50;;
59974;SDS011;62136;-35.664;-63.766;2024-03-02T02:33:22;3.42;;;2.80;;
59974;SDS011;62136;-35.664;-63.766;2024-03-02T02:35:49;2.47;;;2.28;;
59974;SDS011;62136;-35.664;-63.766;2024-03-02T02:38:16;3.10;;;2.50;;
59974;SDS011;62136;-35.664;-63.766;2024-03-02T02:40:45;3.05;;;2.15;;
59974;SDS011;62136;-35.664;-63.766;2024-03-02T02:43:12;3.78;;;2.72;;
59974;SDS011;62136;-35.664;-63.766;2024-03-02T02:45:39;2.75;;;2.55;;
59974;SDS011;62136;-35.664;-63.766;2024-03-02T02:48:06;2.47;;;2.30;;
59974;SDS011;62136;-35.664;-63.766;2024-03-02T02:50:33;2.95;;;2.40;;
59974;SDS011;62136;-35.664;-63.766;2024-03-02T02:53:00;2.67;;;2.20;;
59974;SDS011;62136;-35.664;-63.766;2024-03-02T02:55:27;3.00;;;2.65;;
59974;SDS011;62136;-35.664;-63.766;2024-03-02T02:57:54;2.60;;;2.40;;
59974;SDS011;62136;-35.664;-63.766;2024-03-02T03:00:21;2.83;;;2.53;;
59974;SDS011;62136;-35.664;-63.766;2024-03-02T03:02:51;3.00;;;2.70;;
59974;SDS011;62136;-35.664;-63.766;2024-03-02T03:05:18;3.05;;;2.75;;
59974;SDS011;62136;-35.664;-63.766;2024-03-02T03:07:45;2.67;;;2.47;;
59974;SDS011;62136;-35.664;-63.766;2024-03-02T03:10:15;2.85;;;2.50;;
59974;SDS011;62136;-35.664;-63.766;2024-03-02T03:12:43;3.05;;;2.65;;
59974;SDS011;62136;-35.664;-63.766;2024-03-02T03:15:10;2.97;;;2.67;;
59974;SDS011;62136;-35.664;-63.766;2024-03-02T03:17:41;2.33;;;2.13;;
59974;SDS011;62136;-35.664;-63.766;2024-03-02T03:20:09;2.95;;;2.67;;
59974;SDS011;62136;-35.664;-63.766;2024-03-02T03:22:36;2.78;;;2.58;;
59974;SDS011;62136;-35.664;-63.766;2024-03-02T03:25:04;2.88;;;2.67;;
59974;SDS011;62136;-35.664;-63.766;2024-03-02T03:27:32;2.70;;;2.50;;
59974;SDS011;62136;-35.664;-63.766;2024-03-02T03:29:59;2.70;;;2.50;;
59974;SDS011;62136;-35.664;-63.766;2024-03-02T03:32:26;3.10;;;2.63;;
59974;SDS011;62136;-35.664;-63.766;2024-03-02T03:34:53;2.97;;;2.25;;
59974;SDS011;62136;-35.664;-63.766;2024-03-02T03:37:21;3.55;;;2.55;;
59974;SDS011;62136;-35.664;-63.766;2024-03-02T03:39:48;3.47;;;2.53;;
59974;SDS011;62136;-35.664;-63.766;2024-03-02T03:42:15;2.58;;;2.38;;
59974;SDS011;62136;-35.664;-63.766;2024-03-02T03:44:42;2.97;;;2.67;;
59974;SDS011;62136;-35.664;-63.766;2024-03-02T03:47:09;3.05;;;2.70;;
59974;SDS011;62136;-35.664;-63.766;2024-03-02T03:49:35;2.97;;;2.65;;
59974;SDS011;62136;-35.664;-63.766;2024-03-02T03:52:02;2.40;;;2.20;;
59974;SDS011;62136;-35.664;-63.766;2024-03-02T03:54:30;2.85;;;2.65;;
59974;SDS011;62136;-35.664;-63.766;2024-03-02T03:56:56;2.50;;;2.30;;
59974;SDS011;62136;-35.664;-63.766;2024-03-02T03:59:24;2.60;;;2.40;;
59974;SDS011;62136;-35.664;-63.766;2024-03-02T04:01:50;2.80;;;2.60;;
59974;SDS011;62136;-35.664;-63.766;2024-03-02T04:04:18;2.92;;;2.55;;
59974;SDS011;62136;-35.664;-63.766;2024-03-02T04:06:45;2.60;;;2.40;;
59974;SDS011;62136;-35.664;-63.766;2024-03-02T04:09:12;2.70;;;2.50;;
59974;SDS011;62136;-35.664;-63.766;2024-03-02T04:11:39;2.50;;;2.30;;
59974;SDS011;62136;-35.664;-63.766;2024-03-02T04:14:06;2.92;;;2.72;;
59974;SDS011;62136;-35.664;-63.766;2024-03-02T04:16:33;2.70;;;2.50;;
59974;SDS011;62136;-35.664;-63.766;2024-03-02T04:19:00;3.38;;;2.58;;
59974;SDS011;62136;-35.664;-63.766;2024-03-02T04:21:27;2.95;;;2.70;;
59974;SDS011;62136;-35.664;-63.766;2024-03-02T04:23:54;2.95;;;2.65;;
59974;SDS011;62136;-35.664;-63.766;2024-03-02T04:26:24;3.33;;;2.90;;
59974;SDS011;62136;-35.664;-63.766;2024-03-02T04:28:52;2.80;;;2.60;;
59974;SDS011;62136;-35.664;-63.766;2024-03-02T04:31:20;3.00;;;2.70;;
59974;SDS011;62136;-35.664;-63.766;2024-03-02T04:33:47;3.53;;;2.67;;
59974;SDS011;62136;-35.664;-63.766;2024-03-02T04:36:14;2.88;;;2.47;;
59974;SDS011;62136;-35.664;-63.766;2024-03-02T04:38:41;3.10;;;2.85;;
59974;SDS011;62136;-35.664;-63.766;2024-03-02T04:41:08;2.58;;;2.38;;
59974;SDS011;62136;-35.664;-63.766;2024-03-02T04:43:35;3.15;;;2.90;;
59974;SDS011;62136;-35.664;-63.766;2024-03-02T04:46:02;2.88;;;2.67;;
59974;SDS011;62136;-35.664;-63.766;2024-03-02T04:48:29;2.70;;;2.50;;
59974;SDS011;62136;-35.664;-63.766;2024-03-02T04:50:56;2.97;;;2.70;;
59974;SDS011;62136;-35.664;-63.766;2024-03-02T04:53:23;2.85;;;2.40;;
59974;SDS011;62136;-35.664;-63.766;2024-03-02T04:55:50;2.60;;;2.40;;
59974;SDS011;62136;-35.664;-63.766;2024-03-02T04:58:23;2.95;;;2.38;;
59974;SDS011;62136;-35.664;-63.766;2024-03-02T05:00:50;2.58;;;2.38;;
59974;SDS011;62136;-35.664;-63.766;2024-03-02T05:03:17;2.80;;;2.42;;
59974;SDS011;62136;-35.664;-63.766;2024-03-02T05:05:44;2.97;;;2.67;;
59974;SDS011;62136;-35.664;-63.766;2024-03-02T05:08:12;3.00;;;2.70;;
59974;SDS011;62136;-35.664;-63.766;2024-03-02T05:10:39;2.70;;;2.50;;
59974;SDS011;62136;-35.664;-63.766;2024-03-02T05:13:06;2.40;;;2.20;;
59974;SDS011;62136;-35.664;-63.766;2024-03-02T05:15:32;3.10;;;2.90;;
59974;SDS011;62136;-35.664;-63.766;2024-03-02T05:17:59;3.15;;;2.78;;
59974;SDS011;62136;-35.664;-63.766;2024-03-02T05:20:30;2.80;;;2.42;;
59974;SDS011;62136;-35.664;-63.766;2024-03-02T05:22:57;3.22;;;2.92;;
59974;SDS011;62136;-35.664;-63.766;2024-03-02T05:25:24;2.42;;;2.22;;
59974;SDS011;62136;-35.664;-63.766;2024-03-02T05:27:51;2.70;;;2.50;;
59974;SDS011;62136;-35.664;-63.766;2024-03-02T05:30:18;2.85;;;2.65;;
59974;SDS011;62136;-35.664;-63.766;2024-03-02T05:32:45;3.25;;;2.60;;
59974;SDS011;62136;-35.664;-63.766;2024-03-02T05:35:12;2.95;;;2.72;;
59974;SDS011;62136;-35.664;-63.766;2024-03-02T05:37:40;3.05;;;2.65;;
59974;SDS011;62136;-35.664;-63.766;2024-03-02T05:40:07;3.15;;;2.88;;
59974;SDS011;62136;-35.664;-63.766;2024-03-02T05:42:36;2.80;;;2.60;;
59974;SDS011;62136;-35.664;-63.766;2024-03-02T05:45:03;3.00;;;2.70;;
59974;SDS011;62136;-35.664;-63.766;2024-03-02T05:47:31;2.72;;;2.53;;
59974;SDS011;62136;-35.664;-63.766;2024-03-02T05:49:58;2.50;;;2.30;;
59974;SDS011;62136;-35.664;-63.766;2024-03-02T05:52:25;2.47;;;2.28;;
59974;SDS011;62136;-35.664;-63.766;2024-03-02T05:54:52;3.83;;;2.70;;
59974;SDS011;62136;-35.664;-63.766;2024-03-02T05:57:19;2.53;;;2.33;;
59974;SDS011;62136;-35.664;-63.766;2024-03-02T06:00:04;3.25;;;2.30;;
59974;SDS011;62136;-35.664;-63.766;2024-03-02T06:02:33;3.35;;;2.70;;
59974;SDS011;62136;-35.664;-63.766;2024-03-02T06:05:03;2.55;;;2.35;;
59974;SDS011;62136;-35.664;-63.766;2024-03-02T06:07:32;2.63;;;2.42;;
59974;SDS011;62136;-35.664;-63.766;2024-03-02T06:10:00;2.70;;;2.40;;
59974;SDS011;62136;-35.664;-63.766;2024-03-02T06:12:27;3.30;;;2.70;;
59974;SDS011;62136;-35.664;-63.766;2024-03-02T06:14:56;3.00;;;2.67;;
59974;SDS011;62136;-35.664;-63.766;2024-03-02T06:17:23;2.50;;;2.30;;
59974;SDS011;62136;-35.664;-63.766;2024-03-02T06:19:50;2.70;;;2.50;;
59974;SDS011;62136;-35.664;-63.766;2024-03-02T06:22:17;2.67;;;2.47;;
59974;SDS011;62136;-35.664;-63.766;2024-03-02T06:24:44;2.95;;;2.65;;
59974;SDS011;62136;-35.664;-63.766;2024-03-02T06:27:11;2.75;;;2.55;;
59974;SDS011;62136;-35.664;-63.766;2024-03-02T06:29:38;2.63;;;2.42;;
59974;SDS011;62136;-35.664;-63.766;2024-03-02T06:32:05;2.70;;;2.50;;
59974;SDS011;62136;-35.664;-63.766;2024-03-02T06:34:32;2.45;;;2.25;;
59974;SDS011;62136;-35.664;-63.766;2024-03-02T06:36:59;3.13;;;2.85;;
59974;SDS011;62136;-35.664;-63.766;2024-03-02T06:39:26;2.35;;;2.15;;
59974;SDS011;62136;-35.664;-63.766;2024-03-02T06:41:53;3.38;;;2.80;;
59974;SDS011;62136;-35.664;-63.766;2024-03-02T06:44:20;2.42;;;2.22;;
59974;SDS011;62136;-35.664;-63.766;2024-03-02T06:46:47;2.95;;;2.58;;
59974;SDS011;62136;-35.664;-63.766;2024-03-02T06:49:14;3.20;;;2.90;;
59974;SDS011;62136;-35.664;-63.766;2024-03-02T06:51:43;2.72;;;2.53;;
59974;SDS011;62136;-35.664;-63.766;2024-03-02T06:54:11;3.05;;;2.75;;
59974;SDS011;62136;-35.664;-63.766;2024-03-02T06:56:38;2.70;;;2.50;;
59974;SDS011;62136;-35.664;-63.766;2024-03-02T06:59:05;3.05;;;2.85;;
59974;SDS011;62136;-35.664;-63.766;2024-03-02T07:01:32;2.72;;;2.45;;
59974;SDS011;62136;-35.664;-63.766;2024-03-02T07:04:00;2.80;;;2.60;;
59974;SDS011;62136;-35.664;-63.766;2024-03-02T07:06:27;2.70;;;2.50;;
59974;SDS011;62136;-35.664;-63.766;2024-03-02T07:08:54;2.90;;;2.60;;
59974;SDS011;62136;-35.664;-63.766;2024-03-02T07:11:20;2.60;;;2.40;;
59974;SDS011;62136;-35.664;-63.766;2024-03-02T07:13:47;2.85;;;2.65;;
59974;SDS011;62136;-35.664;-63.766;2024-03-02T07:16:14;3.08;;;2.80;;
59974;SDS011;62136;-35.664;-63.766;2024-03-02T07:19:07;2.80;;;2.60;;
59974;SDS011;62136;-35.664;-63.766;2024-03-02T07:21:35;2.85;;;2.55;;
59974;SDS011;62136;-35.664;-63.766;2024-03-02T07:24:02;2.75;;;2.42;;
59974;SDS011;62136;-35.664;-63.766;2024-03-02T07:26:30;2.65;;;2.40;;
59974;SDS011;62136;-35.664;-63.766;2024-03-02T07:28:57;3.08;;;2.50;;
59974;SDS011;62136;-35.664;-63.766;2024-03-02T07:31:24;2.72;;;2.53;;
59974;SDS011;62136;-35.664;-63.766;2024-03-02T07:33:51;2.97;;;2.60;;
59974;SDS011;62136;-35.664;-63.766;2024-03-02T07:36:18;2.80;;;2.60;;
59974;SDS011;62136;-35.664;-63.766;2024-03-02T07:38:45;2.67;;;2.47;;
59974;SDS011;62136;-35.664;-63.766;2024-03-02T07:41:15;2.90;;;2.70;;
59974;SDS011;62136;-35.664;-63.766;2024-03-02T07:43:42;2.35;;;2.20;;
59974;SDS011;62136;-35.664;-63.766;2024-03-02T07:46:10;2.50;;;2.33;;
59974;SDS011;62136;-35.664;-63.766;2024-03-02T07:48:37;3.22;;;2.95;;
59974;SDS011;62136;-35.664;-63.766;2024-03-02T07:51:04;2.53;;;2.33;;
59974;SDS011;62136;-35.664;-63.766;2024-03-02T07:53:31;2.60;;;2.40;;
59974;SDS011;62136;-35.664;-63.766;2024-03-02T07:55:58;2.70;;;2.40;;
59974;SDS011;62136;-35.664;-63.766;2024-03-02T07:58:27;3.08;;;2.70;;
59974;SDS011;62136;-35.664;-63.766;2024-03-02T08:00:56;2.63;;;2.42;;
59974;SDS011;62136;-35.664;-63.766;2024-03-02T08:03:23;2.72;;;2.53;;
59974;SDS011;62136;-35.664;-63.766;2024-03-02T08:05:50;2.80;;;2.60;;
59974;SDS011;62136;-35.664;-63.766;2024-03-02T08:08:18;2.67;;;2.28;;
59974;SDS011;62136;-35.664;-63.766;2024-03-02T08:10:45;2.60;;;2.40;;
59974;SDS011;62136;-35.664;-63.766;2024-03-02T08:13:12;3.10;;;2.38;;
59974;SDS011;62136;-35.664;-63.766;2024-03-02T08:15:39;2.80;;;2.60;;
59974;SDS011;62136;-35.664;-63.766;2024-03-02T08:18:06;2.53;;;2.33;;
59974;SDS011;62136;-35.664;-63.766;2024-03-02T08:20:33;2.40;;;2.20;;
59974;SDS011;62136;-35.664;-63.766;2024-03-02T08:23:00;2.85;;;2.65;;
59974;SDS011;62136;-35.664;-63.766;2024-03-02T08:25:27;2.90;;;2.42;;
59974;SDS011;62136;-35.664;-63.766;2024-03-02T08:27:54;2.30;;;2.20;;
59974;SDS011;62136;-35.664;-63.766;2024-03-02T08:30:22;2.65;;;2.45;;
59974;SDS011;62136;-35.664;-63.766;2024-03-02T08:32:49;2.35;;;2.15;;
59974;SDS011;62136;-35.664;-63.766;2024-03-02T08:35:16;2.47;;;2.28;;
59974;SDS011;62136;-35.664;-63.766;2024-03-02T08:37:43;2.70;;;2.40;;
59974;SDS011;62136;-35.664;-63.766;2024-03-02T08:40:10;2.47;;;2.28;;
59974;SDS011;62136;-35.664;-63.766;2024-03-02T08:42:38;2.97;;;2.70;;
59974;SDS011;62136;-35.664;-63.766;2024-03-02T08:45:06;2.45;;;2.30;;
59974;SDS011;62136;-35.664;-63.766;2024-03-02T08:47:33;2.58;;;2.38;;
59974;SDS011;62136;-35.664;-63.766;2024-03-02T08:50:00;2.70;;;2.50;;
59974;SDS011;62136;-35.664;-63.766;2024-03-02T08:52:27;2.75;;;2.40;;
59974;SDS011;62136;-35.664;-63.766;2024-03-02T08:54:54;3.28;;;2.38;;
59974;SDS011;62136;-35.664;-63.766;2024-03-02T08:57:21;2.28;;;2.00;;
59974;SDS011;62136;-35.664;-63.766;2024-03-02T08:59:48;2.47;;;2.28;;
59974;SDS011;62136;-35.664;-63.766;2024-03-02T09:02:15;2.47;;;2.28;;
59974;SDS011;62136;-35.664;-63.766;2024-03-02T09:04:42;2.60;;;2.40;;
59974;SDS011;62136;-35.664;-63.766;2024-03-02T09:07:09;2.70;;;2.50;;
59974;SDS011;62136;-35.664;-63.766;2024-03-02T09:09:36;2.10;;;2.00;;
59974;SDS011;62136;-35.664;-63.766;2024-03-02T09:12:05;2.30;;;2.10;;
59974;SDS011;62136;-35.664;-63.766;2024-03-02T09:14:32;2.45;;;2.25;;
59974;SDS011;62136;-35.664;-63.766;2024-03-02T09:17:00;2.45;;;2.25;;
59974;SDS011;62136;-35.664;-63.766;2024-03-02T09:19:28;2.60;;;2.40;;
59974;SDS011;62136;-35.664;-63.766;2024-03-02T09:21:55;2.33;;;2.13;;
59974;SDS011;62136;-35.664;-63.766;2024-03-02T09:24:24;2.58;;;2.38;;
59974;SDS011;62136;-35.664;-63.766;2024-03-02T09:26:51;2.17;;;2.08;;
59974;SDS011;62136;-35.664;-63.766;2024-03-02T09:29:18;2.40;;;2.20;;
59974;SDS011;62136;-35.664;-63.766;2024-03-02T09:31:46;2.50;;;2.30;;
59974;SDS011;62136;-35.664;-63.766;2024-03-02T09:34:13;2.55;;;2.35;;
59974;SDS011;62136;-35.664;-63.766;2024-03-02T09:36:41;2.63;;;2.42;;
59974;SDS011;62136;-35.664;-63.766;2024-03-02T09:39:08;2.40;;;2.20;;
59974;SDS011;62136;-35.664;-63.766;2024-03-02T09:41:38;2.50;;;2.30;;
59974;SDS011;62136;-35.664;-63.766;2024-03-02T09:44:05;2.50;;;2.30;;
59974;SDS011;62136;-35.664;-63.766;2024-03-02T09:46:32;2.92;;;2.58;;
59974;SDS011;62136;-35.664;-63.766;2024-03-02T09:49:00;2.78;;;2.50;;
59974;SDS011;62136;-35.664;-63.766;2024-03-02T09:51:28;2.15;;;1.95;;
59974;SDS011;62136;-35.664;-63.766;2024-03-02T09:53:55;2.33;;;2.13;;
59974;SDS011;62136;-35.664;-63.766;2024-03-02T09:56:22;2.30;;;2.10;;
59974;SDS011;62136;-35.664;-63.766;2024-03-02T09:58:49;2.60;;;2.40;;
59974;SDS011;62136;-35.664;-63.766;2024-03-02T10:01:17;2.60;;;2.40;;
59974;SDS011;62136;-35.664;-63.766;2024-03-02T10:03:44;2.42;;;2.22;;
59974;SDS011;62136;-35.664;-63.766;2024-03-02T10:06:18;3.20;;;2.40;;
59974;SDS011;62136;-35.664;-63.766;2024-03-02T10:08:49;2.38;;;2.17;;
59974;SDS011;62136;-35.664;-63.766;2024-03-02T10:11:30;2.22;;;2.13;;
59974;SDS011;62136;-35.664;-63.766;2024-03-02T10:14:08;2.70;;;2.50;;
59974;SDS011;62136;-35.664;-63.766;2024-03-02T10:16:36;2.83;;;2.63;;
59974;SDS011;62136;-35.664;-63.766;2024-03-02T10:19:17;2.60;;;2.40;;
59974;SDS011;62136;-35.664;-63.766;2024-03-02T10:21:51;2.47;;;2.28;;
59974;SDS011;62136;-35.664;-63.766;2024-03-02T10:24:20;2.50;;;2.30;;
59974;SDS011;62136;-35.664;-63.766;2024-03-02T10:26:48;2.45;;;2.30;;
59974;SDS011;62136;-35.664;-63.766;2024-03-02T10:29:16;2.38;;;2.17;;
59974;SDS011;62136;-35.664;-63.766;2024-03-02T10:31:44;2.67;;;2.20;;
59974;SDS011;62136;-35.664;-63.766;2024-03-02T10:34:12;2.70;;;2.38;;
59974;SDS011;62136;-35.664;-63.766;2024-03-02T10:36:42;2.47;;;2.28;;
59974;SDS011;62136;-35.664;-63.766;2024-03-02T10:39:11;2.53;;;2.33;;
59974;SDS011;62136;-35.664;-63.766;2024-03-02T10:41:40;2.17;;;2.08;;
59974;SDS011;62136;-35.664;-63.766;2024-03-02T10:44:08;2.55;;;2.25;;
59974;SDS011;62136;-35.664;-63.766;2024-03-02T10:46:36;2.90;;;2.40;;
59974;SDS011;62136;-35.664;-63.766;2024-03-02T10:49:05;2.15;;;1.90;;
59974;SDS011;62136;-35.664;-63.766;2024-03-02T10:51:33;2.83;;;2.33;;
59974;SDS011;62136;-35.664;-63.766;2024-03-02T10:54:02;2.53;;;2.33;;
59974;SDS011;62136;-35.664;-63.766;2024-03-02T10:56:30;2.15;;;2.00;;
59974;SDS011;62136;-35.664;-63.766;2024-03-02T11:01:49;2.60;;;2.38;;
59974;SDS011;62136;-35.664;-63.766;2024-03-02T11:04:19;2.30;;;2.10;;
59974;SDS011;62136;-35.664;-63.766;2024-03-02T11:06:49;2.20;;;2.10;;
59974;SDS011;62136;-35.664;-63.766;2024-03-02T11:09:20;2.40;;;2.30;;
59974;SDS011;62136;-35.664;-63.766;2024-03-02T11:12:00;2.05;;;1.95;;
59974;SDS011;62136;-35.664;-63.766;2024-03-02T11:14:32;2.20;;;2.00;;
59974;SDS011;62136;-35.664;-63.766;2024-03-02T11:17:01;2.55;;;2.20;;
59974;SDS011;62136;-35.664;-63.766;2024-03-02T11:19:29;2.63;;;2.42;;
59974;SDS011;62136;-35.664;-63.766;2024-03-02T11:21:57;2.55;;;2.35;;
59974;SDS011;62136;-35.664;-63.766;2024-03-02T11:27:01;2.33;;;2.20;;
59974;SDS011;62136;-35.664;-63.766;2024-03-02T11:32:15;2.28;;;2.08;;
59974;SDS011;62136;-35.664;-63.766;2024-03-02T11:34:49;2.10;;;2.00;;
59974;SDS011;62136;-35.664;-63.766;2024-03-02T11:37:17;2.25;;;2.15;;
59974;SDS011;62136;-35.664;-63.766;2024-03-02T11:39:46;2.97;;;2.70;;
59974;SDS011;62136;-35.664;-63.766;2024-03-02T11:42:15;2.47;;;2.28;;
59974;SDS011;62136;-35.664;-63.766;2024-03-02T11:44:46;2.65;;;2.08;;
59974;SDS011;62136;-35.664;-63.766;2024-03-02T11:47:15;2.40;;;2.20;;
59974;SDS011;62136;-35.664;-63.766;2024-03-02T11:49:49;2.08;;;1.92;;
59974;SDS011;62136;-35.664;-63.766;2024-03-02T11:52:20;1.98;;;1.88;;
59974;SDS011;62136;-35.664;-63.766;2024-03-02T11:54:48;2.20;;;2.00;;
59974;SDS011;62136;-35.664;-63.766;2024-03-02T11:57:20;2.30;;;2.10;;
59974;SDS011;62136;-35.664;-63.766;2024-03-02T11:59:48;2.30;;;2.05;;
59974;SDS011;62136;-35.664;-63.766;2024-03-02T12:02:16;2.20;;;2.00;;
59974;SDS011;62136;-35.664;-63.766;2024-03-02T12:04:44;1.90;;;1.80;;
59974;SDS011;62136;-35.664;-63.766;2024-03-02T12:07:23;1.75;;;1.65;;
59974;SDS011;62136;-35.664;-63.766;2024-03-02T12:09:59;2.22;;;1.90;;
59974;SDS011;62136;-35.664;-63.766;2024-03-02T12:12:28;2.00;;;1.80;;
59974;SDS011;62136;-35.664;-63.766;2024-03-02T12:14:55;2.22;;;2.00;;
59974;SDS011;62136;-35.664;-63.766;2024-03-02T12:17:22;2.35;;;1.67;;
59974;SDS011;62136;-35.664;-63.766;2024-03-02T12:19:49;1.92;;;1.52;;
59974;SDS011;62136;-35.664;-63.766;2024-03-02T12:22:16;2.00;;;1.80;;
59974;SDS011;62136;-35.664;-63.766;2024-03-02T12:24:43;2.20;;;2.00;;
59974;SDS011;62136;-35.664;-63.766;2024-03-02T12:27:12;2.10;;;1.90;;
59974;SDS011;62136;-35.664;-63.766;2024-03-02T12:29:40;1.95;;;1.85;;
59974;SDS011;62136;-35.664;-63.766;2024-03-02T12:32:07;1.92;;;1.73;;
59974;SDS011;62136;-35.664;-63.766;2024-03-02T12:34:35;1.85;;;1.58;;
59974;SDS011;62136;-35.664;-63.766;2024-03-02T12:37:03;1.98;;;1.67;;
59974;SDS011;62136;-35.664;-63.766;2024-03-02T12:39:31;1.67;;;1.58;;
59974;SDS011;62136;-35.664;-63.766;2024-03-02T12:41:58;2.20;;;2.00;;
59974;SDS011;62136;-35.664;-63.766;2024-03-02T12:44:25;1.73;;;1.60;;
59974;SDS011;62136;-35.664;-63.766;2024-03-02T12:46:52;1.65;;;1.55;;
59974;SDS011;62136;-35.664;-63.766;2024-03-02T12:49:21;1.70;;;1.60;;
59974;SDS011;62136;-35.664;-63.766;2024-03-02T12:51:48;1.58;;;1.45;;
59974;SDS011;62136;-35.664;-63.766;2024-03-02T12:54:21;1.58;;;1.48;;
59974;SDS011;62136;-35.664;-63.766;2024-03-02T12:56:50;3.03;;;1.65;;
59974;SDS011;62136;-35.664;-63.766;2024-03-02T12:59:20;1.50;;;1.40;;
59974;SDS011;62136;-35.664;-63.766;2024-03-02T13:01:52;1.60;;;1.50;;
59974;SDS011;62136;-35.664;-63.766;2024-03-02T13:04:24;2.90;;;1.70;;
59974;SDS011;62136;-35.664;-63.766;2024-03-02T13:06:51;2.67;;;1.75;;
59974;SDS011;62136;-35.664;-63.766;2024-03-02T13:09:19;1.80;;;1.40;;
59974;SDS011;62136;-35.664;-63.766;2024-03-02T13:11:46;1.95;;;1.65;;
59974;SDS011;62136;-35.664;-63.766;2024-03-02T13:14:14;2.38;;;1.60;;
59974;SDS011;62136;-35.664;-63.766;2024-03-02T13:16:41;1.70;;;1.60;;
59974;SDS011;62136;-35.664;-63.766;2024-03-02T13:19:13;1.60;;;1.50;;
59974;SDS011;62136;-35.664;-63.766;2024-03-02T13:21:40;2.72;;;1.75;;
59974;SDS011;62136;-35.664;-63.766;2024-03-02T13:24:08;2.15;;;1.50;;
59974;SDS011;62136;-35.664;-63.766;2024-03-02T13:26:35;2.00;;;1.80;;
59974;SDS011;62136;-35.664;-63.766;2024-03-02T13:29:02;1.80;;;1.70;;
59974;SDS011;62136;-35.664;-63.766;2024-03-02T13:31:29;2.28;;;1.50;;
59974;SDS011;62136;-35.664;-63.766;2024-03-02T13:33:56;3.00;;;1.52;;
59974;SDS011;62136;-35.664;-63.766;2024-03-02T13:36:23;1.40;;;1.30;;
59974;SDS011;62136;-35.664;-63.766;2024-03-02T13:38:50;3.05;;;1.70;;
59974;SDS011;62136;-35.664;-63.766;2024-03-02T13:41:17;1.60;;;1.50;;
59974;SDS011;62136;-35.664;-63.766;2024-03-02T13:43:46;1.58;;;1.48;;
59974;SDS011;62136;-35.664;-63.766;2024-03-02T13:46:13;1.75;;;1.50;;
59974;SDS011;62136;-35.664;-63.766;2024-03-02T13:48:40;1.60;;;1.50;;
59974;SDS011;62136;-35.664;-63.766;2024-03-02T13:51:07;1.75;;;1.42;;
59974;SDS011;62136;-35.664;-63.766;2024-03-02T13:53:34;1.70;;;1.55;;
59974;SDS011;62136;-35.664;-63.766;2024-03-02T13:56:02;1.75;;;1.35;;
59974;SDS011;62136;-35.664;-63.766;2024-03-02T13:58:29;1.42;;;1.30;;
59974;SDS011;62136;-35.664;-63.766;2024-03-02T14:00:56;2.00;;;1.73;;
59974;SDS011;62136;-35.664;-63.766;2024-03-02T14:03:23;1.88;;;1.60;;
59974;SDS011;62136;-35.664;-63.766;2024-03-02T14:05:53;1.55;;;1.33;;
59974;SDS011;62136;-35.664;-63.766;2024-03-02T14:08:21;1.63;;;1.52;;
59974;SDS011;62136;-35.664;-63.766;2024-03-02T14:10:48;1.45;;;1.35;;
59974;SDS011;62136;-35.664;-63.766;2024-03-02T14:13:16;1.40;;;1.30;;
59974;SDS011;62136;-35.664;-63.766;2024-03-02T14:15:43;1.95;;;1.50;;
59974;SDS011;62136;-35.664;-63.766;2024-03-02T14:18:11;2.83;;;1.33;;
59974;SDS011;62136;-35.664;-63.766;2024-03-02T14:20:38;1.48;;;1.23;;
59974;SDS011;62136;-35.664;-63.766;2024-03-02T14:23:05;1.40;;;1.30;;
59974;SDS011;62136;-35.664;-63.766;2024-03-02T14:25:32;1.45;;;1.30;;